Time;durP1;ratioP1;P1;durP2;ratioP2;P2;SDS_P1;SDS_P2;PMS_P1;PMS_P2;Temp;Humidity;BMP_temperature;BMP_pressure;BME280_temperature;BME280_humidity;BME280_pressure;Samples;Min_cycle;Max_cycle;Signal;HPM_P1;HPM_P2
2023/03/23 00:05:41;;;;;;;9.07;3.17;;;10.90;99.90;;;;;;15373243;23;20140;-79
2023/03/23 00:11:42;;;;;;;6.43;3.10;;;10.80;99.90;;;;;;15373794;23;20427;-79
2023/03/23 00:17:43;;;;;;;6.53;2.95;;;10.70;99.90;;;;;;15402603;23;20062;-79
2023/03/23 00:23:44;;;;;;;8.95;3.55;;;10.50;99.90;;;;;;15440789;22;20016;-79
2023/03/23 00:29:45;;;;;;;5.88;3.17;;;10.50;99.90;;;;;;15489946;23;20025;-80
2023/03/23 00:35:46;;;;;;;6.35;3.17;;;10.40;99.90;;;;;;15518668;23;20048;-80
2023/03/23 00:41:48;;;;;;;7.50;3.08;;;10.40;99.90;;;;;;15532586;23;20020;-79
2023/03/23 00:47:50;;;;;;;7.78;3.67;;;10.40;99.90;;;;;;15564871;23;20042;-78
2023/03/23 00:53:51;;;;;;;9.35;3.40;;;10.50;99.90;;;;;;15501731;22;20016;-79
2023/03/23 00:59:52;;;;;;;6.68;3.15;;;10.50;99.90;;;;;;15508246;23;20012;-79
2023/03/23 01:05:54;;;;;;;5.25;3.20;;;10.50;99.90;;;;;;15477546;23;20047;-79
2023/03/23 01:11:55;;;;;;;7.65;3.45;;;10.50;99.90;;;;;;15478285;22;20126;-80
2023/03/23 01:17:57;;;;;;;9.57;3.75;;;10.50;99.90;;;;;;15496545;23;20016;-79
2023/03/23 01:23:58;;;;;;;8.68;3.05;;;10.50;99.90;;;;;;15463645;22;20621;-79
2023/03/23 01:29:59;;;;;;;5.22;3.05;;;10.50;99.90;;;;;;15460860;23;20052;-79
2023/03/23 01:36:05;;;;;;;6.18;2.92;;;10.50;99.90;;;;;;15494594;23;20020;-78
2023/03/23 01:42:08;;;;;;;8.38;3.28;;;10.50;99.90;;;;;;15471136;23;20020;-78
2023/03/23 01:48:26;;;;;;;7.45;3.17;;;10.50;99.90;;;;;;15497984;23;20331;-78
2023/03/23 01:54:29;;;;;;;5.97;2.90;;;10.60;99.90;;;;;;15472176;22;20024;-78
2023/03/23 02:00:31;;;;;;;8.00;2.80;;;10.60;99.90;;;;;;15480820;23;20447;-78
2023/03/23 02:06:33;;;;;;;8.60;2.83;;;10.60;99.90;;;;;;15477013;23;20016;-79
2023/03/23 02:12:34;;;;;;;6.07;2.58;;;10.60;99.90;;;;;;15474456;23;20485;-78
2023/03/23 02:18:43;;;;;;;3.92;2.47;;;10.80;99.90;;;;;;15499175;23;20027;-79
2023/03/23 02:24:47;;;;;;;8.93;2.75;;;10.80;99.90;;;;;;15503300;22;20095;-78
2023/03/23 02:31:17;;;;;;;6.95;2.78;;;10.90;99.90;;;;;;15479158;23;20078;-78
2023/03/23 02:37:29;;;;;;;6.88;2.95;;;10.90;99.90;;;;;;15474771;23;20336;-78
2023/03/23 02:43:38;;;;;;;4.60;2.10;;;11.00;99.90;;;;;;15469046;22;20462;-78
2023/03/23 02:49:42;;;;;;;4.80;2.30;;;11.00;99.90;;;;;;15471438;23;20013;-78
2023/03/23 02:55:44;;;;;;;5.30;2.25;;;10.90;99.90;;;;;;15465838;23;20497;-79
2023/03/23 03:01:51;;;;;;;5.13;2.20;;;10.90;99.90;;;;;;15502170;22;20051;-79
2023/03/23 03:07:58;;;;;;;5.88;2.00;;;10.90;99.90;;;;;;15501700;23;20012;-78
2023/03/23 03:14:17;;;;;;;3.63;2.00;;;10.90;99.90;;;;;;15501083;22;20050;-78
2023/03/23 03:20:19;;;;;;;6.03;2.20;;;10.90;99.90;;;;;;15494218;22;20089;-78
2023/03/23 03:26:20;;;;;;;3.42;1.60;;;10.90;99.90;;;;;;15373393;23;20032;-78
2023/03/23 03:32:26;;;;;;;2.97;1.40;;;10.90;99.90;;;;;;15367646;23;20059;-78
2023/03/23 03:38:27;;;;;;;3.80;2.15;;;10.90;99.90;;;;;;15375232;23;20024;-79
2023/03/23 03:44:28;;;;;;;3.10;1.63;;;10.80;99.90;;;;;;15376447;23;20020;-78
2023/03/23 03:50:29;;;;;;;6.10;2.10;;;10.80;99.90;;;;;;15399743;23;20020;-78
2023/03/23 03:56:34;;;;;;;3.95;1.70;;;10.70;99.90;;;;;;15396644;23;20052;-78
2023/03/23 04:02:35;;;;;;;5.95;1.33;;;10.60;99.90;;;;;;15376645;23;20024;-78
2023/03/23 04:08:37;;;;;;;3.42;1.80;;;10.60;99.90;;;;;;15368061;23;20078;-78
2023/03/23 04:14:38;;;;;;;2.78;1.40;;;10.60;99.90;;;;;;15381874;23;20024;-78
2023/03/23 04:20:39;;;;;;;3.45;1.42;;;10.60;99.90;;;;;;15375033;23;20091;-78
2023/03/23 04:26:41;;;;;;;4.07;1.77;;;10.60;99.90;;;;;;15399113;23;20455;-79
2023/03/23 04:32:42;;;;;;;4.47;1.45;;;10.60;99.90;;;;;;15371215;23;20371;-79
2023/03/23 04:38:43;;;;;;;3.65;1.45;;;10.60;99.90;;;;;;15386504;23;20035;-79
2023/03/23 04:44:53;;;;;;;4.18;1.50;;;10.60;99.90;;;;;;15361866;23;20025;-78
2023/03/23 04:50:54;;;;;;;4.25;1.58;;;10.70;99.90;;;;;;15396461;23;20025;-78
2023/03/23 04:56:54;;;;;;;4.00;1.60;;;10.70;99.90;;;;;;15375964;23;20354;-79
2023/03/23 05:02:56;;;;;;;4.22;1.40;;;10.80;99.90;;;;;;15375804;23;20027;-79
2023/03/23 05:08:57;;;;;;;3.08;1.50;;;10.70;99.90;;;;;;15373446;23;20013;-79
2023/03/23 05:14:58;;;;;;;2.72;1.25;;;10.80;99.90;;;;;;15386455;23;20016;-78
2023/03/23 05:21:03;;;;;;;3.17;1.27;;;10.90;99.90;;;;;;15396572;23;20033;-78
2023/03/23 05:27:04;;;;;;;2.75;1.40;;;11.00;99.90;;;;;;15368182;23;20343;-79
2023/03/23 05:33:05;;;;;;;3.22;1.20;;;11.10;99.90;;;;;;15403087;23;20028;-78
2023/03/23 05:39:05;;;;;;;2.35;1.20;;;11.00;99.90;;;;;;15380663;23;20020;-78
2023/03/23 05:45:11;;;;;;;3.08;1.20;;;10.90;99.90;;;;;;15372400;23;20082;-78
2023/03/23 05:51:13;;;;;;;3.25;1.30;;;10.90;99.90;;;;;;15401891;23;20024;-78
2023/03/23 05:57:14;;;;;;;3.08;1.20;;;11.00;99.90;;;;;;15380621;23;20017;-78
2023/03/23 06:03:15;;;;;;;2.88;1.13;;;11.00;99.90;;;;;;15379609;23;20017;-78
2023/03/23 06:09:16;;;;;;;3.35;2.00;;;10.90;99.90;;;;;;15405987;23;20442;-78
2023/03/23 06:15:18;;;;;;;6.32;1.33;;;11.10;99.90;;;;;;15373553;23;20024;-79
2023/03/23 06:21:19;;;;;;;2.58;1.40;;;11.20;99.90;;;;;;15379148;23;20422;-79
2023/03/23 06:27:20;;;;;;;3.92;1.65;;;11.10;99.90;;;;;;15374740;23;20019;-79
2023/03/23 06:33:21;;;;;;;3.40;1.20;;;11.30;99.90;;;;;;15387425;23;20016;-79
2023/03/23 06:39:22;;;;;;;2.65;1.38;;;11.30;99.90;;;;;;15369426;23;20024;-78
2023/03/23 06:45:23;;;;;;;5.03;1.48;;;11.30;99.90;;;;;;15352275;23;20029;-80
2023/03/23 06:51:24;;;;;;;2.72;1.40;;;11.30;99.90;;;;;;15372795;23;20377;-79
2023/03/23 06:57:26;;;;;;;3.92;1.52;;;11.50;99.90;;;;;;15381262;23;20036;-78
2023/03/23 07:03:27;;;;;;;2.08;1.20;;;11.60;99.90;;;;;;15376768;23;20031;-79
2023/03/23 07:09:28;;;;;;;2.47;1.30;;;11.60;99.90;;;;;;15369623;23;20071;-79
2023/03/23 07:15:29;;;;;;;2.38;1.30;;;11.60;99.90;;;;;;15390376;23;20082;-78
2023/03/23 07:21:30;;;;;;;4.10;1.83;;;11.80;99.90;;;;;;15400718;23;20025;-78
2023/03/23 07:27:31;;;;;;;4.13;1.40;;;11.90;99.90;;;;;;15373592;23;20067;-78
2023/03/23 07:33:31;;;;;;;3.15;1.30;;;12.00;99.90;;;;;;15397054;23;20020;-79
2023/03/23 07:39:33;;;;;;;3.33;1.60;;;12.10;99.90;;;;;;15399825;23;20031;-79
2023/03/23 07:45:34;;;;;;;4.35;1.85;;;12.20;99.90;;;;;;15390809;23;20458;-79
2023/03/23 07:51:35;;;;;;;2.88;1.63;;;12.40;99.90;;;;;;15371877;23;20103;-78
2023/03/23 07:57:35;;;;;;;2.95;1.40;;;12.50;99.90;;;;;;15375213;23;20020;-79
2023/03/23 08:03:37;;;;;;;6.13;2.10;;;12.40;99.90;;;;;;15393171;23;20066;-78
2023/03/23 08:09:38;;;;;;;4.43;1.67;;;12.40;99.90;;;;;;15374522;23;20051;-78
2023/03/23 08:15:39;;;;;;;4.25;1.80;;;12.40;99.90;;;;;;15369434;23;20534;-79
2023/03/23 08:21:40;;;;;;;8.50;1.90;;;12.40;99.90;;;;;;15363646;23;20104;-78
2023/03/23 08:27:43;;;;;;;4.57;1.80;;;12.50;99.90;;;;;;15374346;23;20035;-79
2023/03/23 08:33:44;;;;;;;5.23;1.73;;;12.50;99.90;;;;;;15371710;23;20017;-78
2023/03/23 08:39:45;;;;;;;4.68;1.55;;;12.50;99.90;;;;;;15375733;23;20021;-78
2023/03/23 08:45:46;;;;;;;4.68;1.90;;;12.60;99.90;;;;;;15364723;23;20446;-79
2023/03/23 08:51:47;;;;;;;4.97;2.20;;;12.60;99.90;;;;;;15387790;23;20021;-78
2023/03/23 08:57:48;;;;;;;4.07;1.55;;;12.70;99.90;;;;;;15362144;23;20451;-78
2023/03/23 09:03:50;;;;;;;5.35;1.60;;;12.70;99.90;;;;;;15369981;23;20024;-79
2023/03/23 09:09:50;;;;;;;8.75;1.65;;;12.80;99.90;;;;;;15373084;23;20047;-78
2023/03/23 09:15:52;;;;;;;5.03;2.30;;;12.70;99.90;;;;;;15371068;23;20103;-79
2023/03/23 09:21:52;;;;;;;7.13;2.05;;;12.70;99.90;;;;;;15396327;23;20025;-78
2023/03/23 09:27:56;;;;;;;7.35;1.73;;;12.90;99.90;;;;;;15389737;23;20028;-79
2023/03/23 09:33:59;;;;;;;4.13;1.30;;;13.20;99.90;;;;;;15385592;23;20068;-78
2023/03/23 09:39:59;;;;;;;7.25;1.55;;;13.20;99.90;;;;;;15388550;23;20051;-79
2023/03/23 09:46:17;;;;;;;7.55;1.80;;;13.20;99.90;;;;;;15380467;23;20387;-78
2023/03/23 09:52:19;;;;;;;3.28;1.30;;;13.20;99.90;;;;;;15373358;23;20024;-78
2023/03/23 09:58:32;;;;;;;5.97;1.70;;;13.20;99.90;;;;;;15397974;23;20031;-77
2023/03/23 10:04:51;;;;;;;6.30;1.67;;;13.10;99.90;;;;;;15369716;23;20021;-78
2023/03/23 10:11:01;;;;;;;6.05;1.67;;;13.30;99.90;;;;;;15392530;23;20019;-79
2023/03/23 10:17:44;;;;;;;5.93;1.60;;;13.20;99.90;;;;;;15373495;23;20048;-78
2023/03/23 10:23:53;;;;;;;4.78;1.60;;;13.40;99.90;;;;;;15203639;23;20023;-78
2023/03/23 10:30:18;;;;;;;4.05;1.58;;;13.50;99.90;;;;;;15372942;23;20051;-78
2023/03/23 10:36:28;;;;;;;5.65;1.58;;;13.60;99.90;;;;;;15397888;23;20230;-78
2023/03/23 10:42:32;;;;;;;7.30;1.90;;;13.60;99.90;;;;;;15396979;22;20023;-78
2023/03/23 10:48:38;;;;;;;9.82;1.90;;;13.70;99.90;;;;;;15366023;23;20020;-78
2023/03/23 10:54:49;;;;;;;8.02;1.58;;;14.00;99.90;;;;;;15399398;23;20048;-79
2023/03/23 11:00:50;;;;;;;6.63;1.90;;;14.00;99.90;;;;;;15367724;22;20103;-79
2023/03/23 11:06:54;;;;;;;8.98;2.33;;;14.10;99.90;;;;;;15394283;23;20024;-79
2023/03/23 11:13:00;;;;;;;4.15;1.15;;;13.50;99.90;;;;;;15375169;23;20036;-77
2023/03/23 11:19:14;;;;;;;4.57;1.50;;;12.00;99.90;;;;;;15376336;23;20021;-78
2023/03/23 11:25:16;;;;;;;3.13;0.88;;;12.10;99.90;;;;;;15463821;23;20077;-78
2023/03/23 11:31:21;;;;;;;3.05;0.80;;;11.80;99.90;;;;;;15474092;22;20012;-77
2023/03/23 11:37:26;;;;;;;2.13;0.63;;;11.60;99.90;;;;;;15499048;23;20023;-78
2023/03/23 11:43:27;;;;;;;3.05;0.40;;;11.40;99.90;;;;;;15470789;22;20024;-78
2023/03/23 11:49:40;;;;;;;1.65;0.40;;;11.20;99.90;;;;;;15500123;23;20016;-78
2023/03/23 11:55:45;;;;;;;2.40;0.47;;;11.00;99.90;;;;;;15497746;23;20464;-78
2023/03/23 12:02:05;;;;;;;1.83;0.47;;;11.10;99.90;;;;;;15477088;23;20346;-78
2023/03/23 12:08:21;;;;;;;2.35;0.50;;;11.00;99.90;;;;;;15474964;23;20062;-78
2023/03/23 12:14:48;;;;;;;3.15;0.70;;;10.80;99.90;;;;;;15472504;23;20016;-79
2023/03/23 12:21:07;;;;;;;2.55;0.60;;;10.90;99.90;;;;;;15453330;22;20495;-78
2023/03/23 12:27:16;;;;;;;2.90;0.60;;;10.90;99.90;;;;;;15396233;23;20028;-78
2023/03/23 12:33:26;;;;;;;2.83;0.60;;;10.80;99.90;;;;;;15372458;23;20017;-78
2023/03/23 12:39:52;;;;;;;2.65;0.50;;;10.70;99.90;;;;;;15372440;23;20732;-78
2023/03/23 12:46:03;;;;;;;4.05;0.90;;;10.70;99.90;;;;;;15369808;23;20078;-78
2023/03/23 12:52:13;;;;;;;4.80;0.70;;;10.80;99.90;;;;;;15371964;23;20032;-78
2023/03/23 12:58:41;;;;;;;2.38;0.77;;;10.70;99.90;;;;;;15366282;23;20104;-78
2023/03/23 13:05:24;;;;;;;3.65;0.52;;;10.80;99.90;;;;;;15369406;23;20031;-77
2023/03/23 13:11:33;;;;;;;1.92;0.52;;;10.80;99.90;;;;;;15210111;23;20036;-78
2023/03/23 13:18:15;;;;;;;2.38;0.68;;;10.70;99.90;;;;;;15374572;23;20016;-78
2023/03/23 13:24:23;;;;;;;6.15;0.80;;;10.70;99.90;;;;;;15303966;23;20375;-77
2023/03/23 13:30:24;;;;;;;3.65;0.88;;;10.70;99.90;;;;;;15349799;23;20017;-78
2023/03/23 13:36:38;;;;;;;1.63;0.70;;;10.90;99.90;;;;;;15374908;23;20135;-79
2023/03/23 13:42:50;;;;;;;4.05;0.80;;;11.00;99.90;;;;;;15370042;23;20016;-77
2023/03/23 13:49:05;;;;;;;3.55;0.90;;;11.20;99.90;;;;;;15392625;23;20013;-78
2023/03/23 13:55:15;;;;;;;2.20;0.88;;;11.40;99.90;;;;;;15380249;23;20028;-78
2023/03/23 14:01:35;;;;;;;2.67;0.85;;;11.70;99.90;;;;;;15377160;23;20023;-77
2023/03/23 14:08:00;;;;;;;0.85;0.60;;;11.90;99.90;;;;;;15387849;23;20020;-78
2023/03/23 14:14:30;;;;;;;3.75;1.00;;;11.70;99.90;;;;;;15388732;23;20025;-78
2023/03/23 14:20:34;;;;;;;1.55;0.60;;;11.60;99.90;;;;;;15382870;22;20051;-78
2023/03/23 14:26:35;;;;;;;2.33;1.02;;;11.70;99.90;;;;;;15458029;22;20012;-79
2023/03/23 14:32:36;;;;;;;4.50;1.10;;;11.80;99.90;;;;;;15461105;22;20013;-78
2023/03/23 14:38:40;;;;;;;2.63;1.10;;;11.70;99.90;;;;;;15443999;22;20012;-78
2023/03/23 14:44:50;;;;;;;5.13;1.67;;;11.80;99.90;;;;;;15389961;23;20028;-79
2023/03/23 14:50:59;;;;;;;5.63;1.85;;;11.90;99.90;;;;;;15383989;23;20016;-80
2023/03/23 14:57:22;;;;;;;3.15;1.83;;;11.80;99.90;;;;;;15401513;23;20024;-79
2023/03/23 15:03:24;;;;;;;5.38;2.85;;;11.80;99.90;;;;;;15359941;23;20052;-78
2023/03/23 15:09:25;;;;;;;5.68;2.60;;;12.10;99.90;;;;;;15401014;23;20108;-78
2023/03/23 15:15:32;;;;;;;3.47;2.42;;;12.50;99.90;;;;;;15395597;23;20017;-78
2023/03/23 15:21:35;;;;;;;4.72;2.22;;;12.50;99.90;;;;;;15396267;23;20020;-79
2023/03/23 15:27:42;;;;;;;6.07;2.90;;;12.60;99.90;;;;;;15403338;23;20021;-78
2023/03/23 15:33:43;;;;;;;3.88;2.20;;;12.90;99.90;;;;;;15369376;23;20394;-78
2023/03/23 15:39:45;;;;;;;4.00;2.58;;;12.80;99.90;;;;;;15402767;23;20017;-78
2023/03/23 15:46:06;;;;;;;4.47;2.13;;;12.40;99.90;;;;;;15374179;23;20036;-78
2023/03/23 15:52:11;;;;;;;5.90;2.33;;;12.40;99.90;;;;;;15404826;23;20032;-77
2023/03/23 15:58:12;;;;;;;7.18;2.58;;;12.30;99.90;;;;;;15374714;23;20020;-78
2023/03/23 16:04:17;;;;;;;5.13;2.45;;;12.30;99.90;;;;;;15397805;23;20020;-78
2023/03/23 16:10:22;;;;;;;5.10;2.35;;;12.30;99.90;;;;;;15393019;23;20024;-78
2023/03/23 16:16:28;;;;;;;6.45;2.65;;;12.10;99.90;;;;;;15399838;23;20021;-78
2023/03/23 16:22:30;;;;;;;9.88;2.85;;;12.00;99.90;;;;;;15419967;23;20029;-78
2023/03/23 16:28:32;;;;;;;5.70;2.20;;;12.10;99.90;;;;;;15399855;23;20039;-79
2023/03/23 16:34:35;;;;;;;5.80;2.40;;;12.00;99.90;;;;;;15400847;23;20030;-79
2023/03/23 16:40:37;;;;;;;6.43;2.75;;;12.00;99.90;;;;;;15400006;23;20025;-78
2023/03/23 16:46:39;;;;;;;6.40;2.65;;;11.90;99.90;;;;;;15424578;23;20103;-78
2023/03/23 16:52:46;;;;;;;5.95;2.70;;;11.90;99.90;;;;;;15403804;23;20028;-77
2023/03/23 16:58:48;;;;;;;7.03;2.95;;;11.80;99.90;;;;;;15399986;23;20051;-78
2023/03/23 17:04:51;;;;;;;4.93;2.60;;;11.70;99.90;;;;;;15397201;23;20109;-78
2023/03/23 17:10:55;;;;;;;7.43;3.00;;;11.70;99.90;;;;;;15420062;23;20021;-78
2023/03/23 17:16:57;;;;;;;5.15;2.65;;;11.80;99.90;;;;;;15426287;23;20688;-78
2023/03/23 17:22:59;;;;;;;4.78;2.83;;;11.70;99.90;;;;;;15390942;23;20040;-78
2023/03/23 17:29:02;;;;;;;8.23;2.70;;;11.60;99.90;;;;;;15425159;23;20083;-78
2023/03/23 17:35:05;;;;;;;7.68;3.33;;;11.40;99.90;;;;;;15426114;23;20035;-78
2023/03/23 17:41:08;;;;;;;4.55;3.20;;;11.40;99.90;;;;;;15403509;23;20016;-77
2023/03/23 17:47:11;;;;;;;9.30;3.50;;;11.30;99.90;;;;;;15424097;23;20068;-78
2023/03/23 17:53:13;;;;;;;5.55;2.97;;;11.30;99.90;;;;;;15396284;23;20024;-78
2023/03/23 17:59:15;;;;;;;6.75;3.40;;;11.30;99.90;;;;;;15428291;23;20086;-78
2023/03/23 18:05:18;;;;;;;5.00;2.95;;;11.40;99.90;;;;;;15397923;23;20024;-78
2023/03/23 18:11:20;;;;;;;5.65;3.22;;;11.40;99.90;;;;;;15397499;23;20475;-78
2023/03/23 18:17:23;;;;;;;5.55;3.20;;;11.50;99.90;;;;;;15400692;23;20067;-79
2023/03/23 18:23:25;;;;;;;7.40;3.00;;;11.50;99.90;;;;;;15392910;23;20031;-78
2023/03/23 18:29:27;;;;;;;5.50;3.60;;;11.40;99.90;;;;;;15422910;23;20379;-78
2023/03/23 18:35:29;;;;;;;5.90;3.28;;;11.40;99.90;;;;;;15426707;23;20104;-78
2023/03/23 18:41:31;;;;;;;5.22;3.00;;;11.30;99.90;;;;;;15398340;23;20459;-78
2023/03/23 18:47:36;;;;;;;5.65;3.20;;;11.30;99.90;;;;;;15394340;23;20091;-78
2023/03/23 18:53:39;;;;;;;5.85;3.20;;;11.20;99.90;;;;;;15398449;23;20020;-78
2023/03/23 18:59:41;;;;;;;6.72;2.95;;;11.20;99.90;;;;;;15400642;23;20024;-79
2023/03/23 19:05:44;;;;;;;8.13;4.28;;;11.10;99.90;;;;;;15426449;23;20031;-79
2023/03/23 19:11:46;;;;;;;8.82;3.38;;;11.00;99.90;;;;;;15395598;23;20036;-78
2023/03/23 19:17:54;;;;;;;5.30;3.08;;;10.90;99.90;;;;;;15397886;23;20103;-80
2023/03/23 19:23:56;;;;;;;6.53;3.08;;;11.00;99.90;;;;;;15462233;22;20020;-78
2023/03/23 19:29:58;;;;;;;5.60;3.30;;;11.10;99.90;;;;;;15499322;23;20020;-79
2023/03/23 19:36:00;;;;;;;8.88;3.00;;;11.10;99.90;;;;;;15499904;23;20032;-79
2023/03/23 19:42:15;;;;;;;4.00;2.53;;;11.10;99.90;;;;;;15500248;22;20023;-78
2023/03/23 19:48:17;;;;;;;6.78;2.85;;;10.90;99.90;;;;;;15502780;23;20021;-78
2023/03/23 19:54:19;;;;;;;7.22;2.95;;;10.90;99.90;;;;;;15500585;23;20024;-78
2023/03/23 20:00:22;;;;;;;5.75;2.30;;;10.90;99.90;;;;;;15498829;23;20020;-78
2023/03/23 20:06:25;;;;;;;5.07;2.47;;;10.90;99.90;;;;;;15499292;22;20474;-79
2023/03/23 20:12:30;;;;;;;6.65;1.98;;;10.90;99.90;;;;;;15502454;22;20035;-78
2023/03/23 20:18:32;;;;;;;7.28;2.08;;;11.00;99.90;;;;;;15503274;23;20402;-77
2023/03/23 20:24:35;;;;;;;6.03;2.28;;;11.10;99.90;;;;;;15499873;22;20078;-78
2023/03/23 20:30:39;;;;;;;4.97;1.92;;;11.10;99.90;;;;;;15492295;22;20074;-78
2023/03/23 20:36:43;;;;;;;4.65;1.90;;;11.20;99.90;;;;;;15500981;23;20027;-78
2023/03/23 20:42:47;;;;;;;4.63;1.50;;;11.20;99.90;;;;;;15492388;22;20035;-78
2023/03/23 20:48:50;;;;;;;4.30;1.58;;;11.10;99.90;;;;;;15495678;23;20496;-78
2023/03/23 20:54:54;;;;;;;3.00;1.48;;;11.10;99.90;;;;;;15499520;22;20024;-78
2023/03/23 21:01:00;;;;;;;7.50;2.50;;;11.00;99.90;;;;;;15498709;23;20058;-78
2023/03/23 21:07:02;;;;;;;3.85;1.67;;;11.10;99.90;;;;;;15490217;23;20063;-78
2023/03/23 21:13:05;;;;;;;9.18;1.65;;;11.10;99.90;;;;;;15499404;23;20020;-78
2023/03/23 21:19:07;;;;;;;6.15;1.77;;;11.00;99.90;;;;;;15488300;22;20056;-78
2023/03/23 21:25:10;;;;;;;4.88;1.48;;;10.90;99.90;;;;;;15490966;23;20094;-79
2023/03/23 21:31:13;;;;;;;5.07;1.90;;;11.00;99.90;;;;;;15490097;22;20112;-79
2023/03/23 21:37:15;;;;;;;5.10;1.90;;;10.90;99.90;;;;;;15489582;23;20042;-78
2023/03/23 21:43:19;;;;;;;5.28;1.77;;;10.90;99.90;;;;;;15492536;23;20024;-79
2023/03/23 21:49:21;;;;;;;7.55;2.05;;;11.00;99.90;;;;;;15487659;23;20554;-78
2023/03/23 21:55:24;;;;;;;5.82;1.88;;;11.00;99.90;;;;;;15493804;23;20020;-78
2023/03/23 22:01:28;;;;;;;5.88;1.83;;;11.10;99.90;;;;;;15486272;23;20020;-78
2023/03/23 22:07:32;;;;;;;7.20;2.10;;;11.10;99.90;;;;;;15492141;23;20031;-79
2023/03/23 22:13:35;;;;;;;6.35;2.53;;;11.10;99.90;;;;;;15483889;22;20361;-78
2023/03/23 22:19:38;;;;;;;4.25;1.80;;;11.10;99.90;;;;;;15491989;22;20051;-79
2023/03/23 22:25:40;;;;;;;6.53;1.63;;;11.10;99.90;;;;;;15423832;23;20056;-79
2023/03/23 22:31:43;;;;;;;4.95;1.67;;;11.10;99.90;;;;;;15419191;23;20082;-78
2023/03/23 22:37:45;;;;;;;5.80;1.73;;;11.30;99.90;;;;;;15401168;23;20025;-79
2023/03/23 22:43:48;;;;;;;5.90;1.92;;;11.40;99.90;;;;;;15389447;23;20039;-78
2023/03/23 22:49:49;;;;;;;4.30;1.90;;;11.40;99.90;;;;;;15428752;23;20019;-78
2023/03/23 22:55:54;;;;;;;6.25;1.80;;;11.40;99.90;;;;;;15426167;23;20363;-79
2023/03/23 23:01:57;;;;;;;;;;;11.50;99.90;;;;;;15429295;23;20025;-78
2023/03/23 23:08:00;;;;;;;4.85;1.58;;;11.40;99.90;;;;;;15399811;23;19995;-79
2023/03/23 23:14:02;;;;;;;4.95;1.42;;;11.40;99.90;;;;;;15397890;23;20028;-78
2023/03/23 23:20:04;;;;;;;6.05;1.70;;;11.50;99.90;;;;;;15401504;23;20024;-79
2023/03/23 23:26:08;;;;;;;6.28;1.60;;;11.60;99.90;;;;;;15427579;23;20016;-79
2023/03/23 23:32:11;;;;;;;3.47;1.38;;;11.80;99.90;;;;;;15414370;23;20398;-79
2023/03/23 23:38:14;;;;;;;5.43;1.67;;;11.60;99.90;;;;;;15393996;23;20036;-79
2023/03/23 23:44:16;;;;;;;7.30;1.65;;;11.40;99.90;;;;;;15392810;23;20114;-79
2023/03/23 23:50:20;;;;;;;4.03;1.60;;;11.20;99.90;;;;;;15426676;23;20056;-79
2023/03/23 23:56:22;;;;;;;4.40;1.70;;;11.10;99.90;;;;;;15403317;23;20036;-79
